Time,TemperatureF,DewpointF,PressureIn,WindDirection,WindDirectionDegrees,WindSpeedMPH,WindSpeedGustMPH,Humidity,HourlyPrecipIn,Conditions,Clouds,dailyrainin,SoftwareType,DateUTC
2013-05-25 00:02:00,47.1,43.7,29.96,SSE,160,2.0,14.0,88,0.00,,,0.00,meteohub,2013-05-25 07:02:00,
2013-05-25 00:07:00,47.1,44.1,29.96,ESE,113,2.0,12.0,89,0.00,,,0.00,meteohub,2013-05-25 07:07:00,
2013-05-25 00:12:00,46.9,43.9,29.96,SSW,207,2.0,9.0,89,0.00,,,0.00,meteohub,2013-05-25 07:12:00,
2013-05-25 00:17:00,46.8,43.7,29.96,SSE,167,1.0,9.0,89,0.00,,,0.00,meteohub,2013-05-25 07:17:00,
2013-05-25 00:22:00,46.8,44.1,29.96,WNW,291,2.0,8.0,90,0.00,,,0.00,meteohub,2013-05-25 07:22:00,
2013-05-25 00:27:00,46.8,44.1,29.96,SSW,203,1.0,8.0,90,0.00,,,0.00,meteohub,2013-05-25 07:27:00,
2013-05-25 00:32:00,46.8,43.7,29.96,ESE,115,2.0,8.0,89,0.00,,,0.00,meteohub,2013-05-25 07:32:00,
2013-05-25 00:37:00,46.8,43.3,29.96,SE,134,1.0,7.0,88,0.00,,,0.00,meteohub,2013-05-25 07:37:00,
2013-05-25 00:42:00,46.8,42.8,29.96,South,183,5.0,5.0,86,0.00,,,0.00,meteohub,2013-05-25 07:42:00,
2013-05-25 00:47:00,46.8,42.3,29.96,ESE,113,4.0,7.0,84,0.00,,,0.00,meteohub,2013-05-25 07:47:00,
2013-05-25 00:52:00,46.8,41.9,29.96,East,98,4.0,9.0,83,0.00,,,0.00,meteohub,2013-05-25 07:52:00,
2013-05-25 00:57:00,46.9,41.2,29.96,East,93,3.0,9.0,80,0.00,,,0.00,meteohub,2013-05-25 07:57:00,
2013-05-25 01:02:00,47.1,40.3,29.95,SE,141,2.0,11.0,77,0.00,,,0.00,meteohub,2013-05-25 08:02:00,
2013-05-25 01:07:00,47.3,39.0,29.95,ENE,65,6.0,11.0,73,0.00,,,0.00,meteohub,2013-05-25 08:07:00,
2013-05-25 01:12:00,47.5,37.0,29.95,East,100,3.0,10.0,67,0.00,,,0.00,meteohub,2013-05-25 08:12:00,
2013-05-25 01:17:00,47.5,34.7,29.95,ENE,74,4.0,10.0,61,0.00,,,0.00,meteohub,2013-05-25 08:17:00,
2013-05-25 01:22:00,47.3,32.9,29.95,SE,138,3.0,10.0,57,0.00,,,0.00,meteohub,2013-05-25 08:22:00,
2013-05-25 01:27:00,47.3,30.6,29.95,SSE,166,8.0,9.0,52,0.00,,,0.00,meteohub,2013-05-25 08:27:00,
2013-05-25 01:32:00,47.3,27.5,29.95,SE,139,4.0,9.0,46,0.00,,,0.00,meteohub,2013-05-25 08:32:00,
2013-05-25 01:37:00,47.3,24.8,29.95,SE,138,7.0,9.0,41,0.00,,,0.00,meteohub,2013-05-25 08:37:00,
2013-05-25 01:42:00,47.3,25.3,29.95,SE,127,4.0,9.0,42,0.00,,,0.00,meteohub,2013-05-25 08:42:00,
2013-05-25 01:47:00,47.3,27.0,29.94,East,100,3.0,11.0,45,0.00,,,0.00,meteohub,2013-05-25 08:47:00,
2013-05-25 01:52:00,47.5,30.7,29.95,East,81,4.0,11.0,52,0.00,,,0.00,meteohub,2013-05-25 08:52:00,
2013-05-25 01:57:00,47.7,30.0,29.94,East,85,4.0,13.0,50,0.00,,,0.00,meteohub,2013-05-25 08:57:00,
2013-05-25 02:02:00,47.7,23.9,29.94,SSE,163,5.0,13.0,39,0.00,,,0.00,meteohub,2013-05-25 09:02:00,
2013-05-25 02:07:00,47.8,19.4,29.94,SSW,195,6.0,12.0,32,0.00,,,0.00,meteohub,2013-05-25 09:07:00,
2013-05-25 02:12:00,48.0,16.5,29.94,ESE,103,7.0,10.0,28,0.00,,,0.00,meteohub,2013-05-25 09:12:00,
2013-05-25 02:17:00,48.4,14.2,29.94,ESE,120,3.0,11.0,25,0.00,,,0.00,meteohub,2013-05-25 09:17:00,
2013-05-25 02:22:00,48.4,12.2,29.94,South,172,9.0,11.0,23,0.00,,,0.00,meteohub,2013-05-25 09:22:00,
2013-05-25 02:27:00,48.6,9.3,29.94,SE,132,4.0,12.0,20,0.00,,,0.00,meteohub,2013-05-25 09:27:00,
2013-05-25 02:32:00,48.6,9.3,29.94,SE,139,8.0,12.0,20,0.00,,,0.00,meteohub,2013-05-25 09:32:00,
2013-05-25 02:37:00,48.6,9.3,29.94,SSE,162,3.0,12.0,20,0.00,,,0.00,meteohub,2013-05-25 09:37:00,
2013-05-25 02:42:00,48.6,10.4,29.94,East,98,7.0,12.0,21,0.00,,,0.00,meteohub,2013-05-25 09:42:00,
2013-05-25 02:47:00,48.6,10.4,29.95,SSE,155,3.0,12.0,21,0.00,,,0.00,meteohub,2013-05-25 09:47:00,
2013-05-25 02:52:00,48.4,14.2,29.95,ESE,107,4.0,12.0,25,0.00,,,0.00,meteohub,2013-05-25 09:52:00,
2013-05-25 02:57:00,48.4,17.6,29.95,East,98,5.0,11.0,29,0.00,,,0.00,meteohub,2013-05-25 09:57:00,
2013-05-25 03:02:00,48.4,16.7,29.94,ESE,115,2.0,14.0,28,0.00,,,0.00,meteohub,2013-05-25 10:02:00,
2013-05-25 03:07:00,48.6,16.2,29.94,South,186,3.0,14.0,27,0.00,,,0.00,meteohub,2013-05-25 10:07:00,
2013-05-25 03:12:00,48.6,14.4,29.94,ENE,70,6.0,14.0,25,0.00,,,0.00,meteohub,2013-05-25 10:12:00,
2013-05-25 03:17:00,48.7,15.4,29.94,ESE,110,7.0,14.0,26,0.00,,,0.00,meteohub,2013-05-25 10:17:00,
2013-05-25 03:22:00,48.7,11.7,29.94,East,101,6.0,14.0,22,0.00,,,0.00,meteohub,2013-05-25 10:22:00,
2013-05-25 03:27:00,48.6,10.4,29.94,SE,131,5.0,14.0,21,0.00,,,0.00,meteohub,2013-05-25 10:27:00,
2013-05-25 03:32:00,48.6,8.1,29.94,ESE,107,5.0,13.0,19,0.00,,,0.00,meteohub,2013-05-25 10:32:00,
2013-05-25 03:37:00,48.6,8.1,29.94,ESE,103,6.0,13.0,19,0.00,,,0.00,meteohub,2013-05-25 10:37:00,
2013-05-25 03:42:00,48.6,8.1,29.94,ESE,123,2.0,14.0,19,0.00,,,0.00,meteohub,2013-05-25 10:42:00,
2013-05-25 03:47:00,48.7,4.5,29.94,East,98,5.0,14.0,16,0.00,,,0.00,meteohub,2013-05-25 10:47:00,
2013-05-25 03:52:00,48.7,1.6,29.94,East,98,8.0,14.0,14,0.00,,,0.00,meteohub,2013-05-25 10:52:00,
2013-05-25 03:57:00,48.9,3.2,29.94,SSW,212,5.0,15.0,15,0.00,,,0.00,meteohub,2013-05-25 10:57:00,
2013-05-25 04:02:00,49.1,1.9,29.94,East,96,3.0,16.0,14,0.00,,,0.00,meteohub,2013-05-25 11:02:00,
2013-05-25 04:07:00,49.3,3.6,29.94,East,100,6.0,16.0,15,0.00,,,0.00,meteohub,2013-05-25 11:07:00,
2013-05-25 04:12:00,49.3,2.1,29.94,SE,136,7.0,16.0,14,0.00,,,0.00,meteohub,2013-05-25 11:12:00,
2013-05-25 04:17:00,49.5,2.3,29.94,SSW,195,8.0,15.0,14,0.00,,,0.00,meteohub,2013-05-25 11:17:00,
2013-05-25 04:22:00,49.3,2.1,29.94,SSE,167,3.0,15.0,14,0.00,,,0.00,meteohub,2013-05-25 11:22:00,
2013-05-25 04:27:00,49.3,6.3,29.94,South,179,4.0,12.0,17,0.00,,,0.00,meteohub,2013-05-25 11:27:00,
2013-05-25 04:32:00,48.9,6.1,29.94,SE,134,3.0,12.0,17,0.00,,,0.00,meteohub,2013-05-25 11:32:00,
2013-05-25 04:37:00,49.1,9.7,29.94,East,81,7.0,11.0,20,0.00,,,0.00,meteohub,2013-05-25 11:37:00,
2013-05-25 04:42:00,49.3,10.9,29.94,NNE,18,3.0,13.0,21,0.00,,,0.00,meteohub,2013-05-25 11:42:00,
2013-05-25 04:47:00,49.1,9.7,29.94,ESE,119,5.0,13.0,20,0.00,,,0.00,meteohub,2013-05-25 11:47:00,
2013-05-25 04:52:00,49.1,7.3,29.94,ESE,105,5.0,12.0,18,0.00,,,0.00,meteohub,2013-05-25 11:52:00,
2013-05-25 04:57:00,49.1,6.1,29.94,ESE,103,3.0,12.0,17,0.00,,,0.00,meteohub,2013-05-25 11:57:00,
2013-05-25 05:02:00,48.9,6.1,29.94,SSE,148,4.0,12.0,17,0.00,,,0.00,meteohub,2013-05-25 12:02:00,
2013-05-25 05:07:00,48.7,4.5,29.94,ESE,108,2.0,13.0,16,0.00,,,0.00,meteohub,2013-05-25 12:07:00,
2013-05-25 05:12:00,48.7,4.5,29.95,SE,129,4.0,13.0,16,0.00,,,0.00,meteohub,2013-05-25 12:12:00,
2013-05-25 05:17:00,48.6,0.0,29.94,ENE,72,3.0,9.0,13,0.00,,,0.00,meteohub,2013-05-25 12:17:00,
2013-05-25 05:22:00,48.4,-1.8,29.95,ESE,110,7.0,9.0,12,0.00,,,0.00,meteohub,2013-05-25 12:22:00,
2013-05-25 05:27:00,48.4,-5.8,29.95,ESE,110,2.0,11.0,10,0.00,,,0.00,meteohub,2013-05-25 12:27:00,
2013-05-25 05:32:00,48.4,-8.0,29.95,SE,133,5.0,11.0,9,0.00,,,0.00,meteohub,2013-05-25 12:32:00,
2013-05-25 05:37:00,48.4,-5.8,29.95,WSW,242,3.0,11.0,10,0.00,,,0.00,meteohub,2013-05-25 12:37:00,
2013-05-25 05:42:00,48.0,-2.2,29.95,SSW,212,2.0,10.0,12,0.00,,,0.00,meteohub,2013-05-25 12:42:00,
2013-05-25 05:47:00,48.0,-4.0,29.94,NW,307,2.0,7.0,11,0.00,,,0.00,meteohub,2013-05-25 12:47:00,
2013-05-25 05:52:00,48.0,-2.2,29.95,SW,235,3.0,8.0,12,0.00,,,0.00,meteohub,2013-05-25 12:52:00,
2013-05-25 05:57:00,48.0,-2.2,29.95,SE,124,2.0,9.0,12,0.00,,,0.00,meteohub,2013-05-25 12:57:00,
2013-05-25 06:02:00,48.4,-3.8,29.95,ESE,113,5.0,9.0,11,0.00,,,0.00,meteohub,2013-05-25 13:02:00,
2013-05-25 06:07:00,48.7,-5.4,29.95,ESE,120,2.0,9.0,10,0.00,,,0.00,meteohub,2013-05-25 13:07:00,
2013-05-25 06:12:00,48.9,-3.3,29.95,ENE,76,3.0,8.0,11,0.00,,,0.00,meteohub,2013-05-25 13:12:00,
2013-05-25 06:17:00,49.3,-7.2,29.95,SW,214,3.0,9.0,9,0.00,,,0.00,meteohub,2013-05-25 13:17:00,
2013-05-25 06:22:00,49.3,-3.1,29.95,SSE,148,4.0,9.0,11,0.00,,,0.00,meteohub,2013-05-25 13:22:00,
2013-05-25 06:27:00,49.3,-5.1,29.95,ESE,110,5.0,11.0,10,0.00,,,0.00,meteohub,2013-05-25 13:27:00,
2013-05-25 06:32:00,49.5,-9.4,29.95,ESE,116,3.0,11.0,8,0.00,,,0.00,meteohub,2013-05-25 13:32:00,
2013-05-25 06:37:00,49.6,-12.1,29.95,SSE,158,2.0,10.0,7,0.00,,,0.00,meteohub,2013-05-25 13:37:00,
2013-05-25 06:42:00,49.8,-6.9,29.95,South,187,2.0,10.0,9,0.00,,,0.00,meteohub,2013-05-25 13:42:00,
2013-05-25 06:47:00,50.2,-0.6,29.96,East,98,3.0,9.0,12,0.00,,,0.00,meteohub,2013-05-25 13:47:00,
2013-05-25 06:52:00,50.5,1.4,29.96,ESE,108,3.0,10.0,13,0.00,,,0.00,meteohub,2013-05-25 13:52:00,
2013-05-25 06:57:00,50.5,3.0,29.96,SE,143,3.0,10.0,14,0.00,,,0.00,meteohub,2013-05-25 13:57:00,
2013-05-25 07:02:00,50.7,4.6,29.96,East,86,4.0,10.0,15,0.00,,,0.00,meteohub,2013-05-25 14:02:00,
2013-05-25 07:07:00,50.7,4.6,29.96,North,8,6.0,10.0,15,0.00,,,0.00,meteohub,2013-05-25 14:07:00,
2013-05-25 07:12:00,50.7,3.2,29.96,ESE,103,2.0,10.0,14,0.00,,,0.00,meteohub,2013-05-25 14:12:00,
2013-05-25 07:17:00,50.7,4.6,29.96,NNW,333,2.0,10.0,15,0.00,,,0.00,meteohub,2013-05-25 14:17:00,
2013-05-25 07:22:00,50.9,7.7,29.97,WNW,285,1.0,9.0,17,0.00,,,0.00,meteohub,2013-05-25 14:22:00,
2013-05-25 07:27:00,51.3,10.4,29.97,East,91,5.0,9.0,19,0.00,,,0.00,meteohub,2013-05-25 14:27:00,
2013-05-25 07:32:00,51.4,6.8,29.97,West,267,3.0,10.0,16,0.00,,,0.00,meteohub,2013-05-25 14:32:00,
2013-05-25 07:37:00,51.6,5.4,29.97,WSW,249,2.0,10.0,15,0.00,,,0.00,meteohub,2013-05-25 14:37:00,
2013-05-25 07:42:00,52.2,7.3,29.97,ENE,69,3.0,11.0,16,0.00,,,0.00,meteohub,2013-05-25 14:42:00,
2013-05-25 07:47:00,52.3,4.5,29.97,East,98,4.0,11.0,14,0.00,,,0.00,meteohub,2013-05-25 14:47:00,
2013-05-25 07:52:00,52.7,4.8,29.97,SSW,201,2.0,11.0,14,0.00,,,0.00,meteohub,2013-05-25 14:52:00,
2013-05-25 07:57:00,53.1,5.2,29.97,SE,141,3.0,11.0,14,0.00,,,0.00,meteohub,2013-05-25 14:57:00,
2013-05-25 08:02:00,53.2,6.8,29.97,ENE,60,8.0,12.0,15,0.00,,,0.00,meteohub,2013-05-25 15:02:00,
2013-05-25 08:07:00,53.4,9.7,29.97,East,82,5.0,12.0,17,0.00,,,0.00,meteohub,2013-05-25 15:07:00,
2013-05-25 08:12:00,53.8,11.3,29.97,SE,134,3.0,13.0,18,0.00,,,0.00,meteohub,2013-05-25 15:12:00,
2013-05-25 08:17:00,54.1,12.7,29.97,East,101,3.0,13.0,19,0.00,,,0.00,meteohub,2013-05-25 15:17:00,
2013-05-25 08:22:00,54.7,14.4,29.97,NE,39,2.0,13.0,20,0.00,,,0.00,meteohub,2013-05-25 15:22:00,
2013-05-25 08:27:00,55.0,15.8,29.97,SE,136,7.0,14.0,21,0.00,,,0.00,meteohub,2013-05-25 15:27:00,
2013-05-25 08:32:00,55.2,17.1,29.97,ESE,110,7.0,14.0,22,0.00,,,0.00,meteohub,2013-05-25 15:32:00,
2013-05-25 08:37:00,55.2,16.0,29.97,ESE,111,4.0,14.0,21,0.00,,,0.00,meteohub,2013-05-25 15:37:00,
2013-05-25 08:42:00,55.6,17.2,29.97,East,96,8.0,13.0,22,0.00,,,0.00,meteohub,2013-05-25 15:42:00,
2013-05-25 08:47:00,55.8,17.4,29.98,South,186,9.0,13.0,22,0.00,,,0.00,meteohub,2013-05-25 15:47:00,
2013-05-25 08:52:00,56.1,17.8,29.98,SE,142,8.0,13.0,22,0.00,,,0.00,meteohub,2013-05-25 15:52:00,
2013-05-25 08:57:00,56.7,20.3,29.98,ESE,120,2.0,13.0,24,0.00,,,0.00,meteohub,2013-05-25 15:57:00,
2013-05-25 09:02:00,56.7,23.0,29.98,South,174,2.0,14.0,27,0.00,,,0.00,meteohub,2013-05-25 16:02:00,
2013-05-25 09:07:00,56.7,23.0,29.97,SW,221,6.0,14.0,27,0.00,,,0.00,meteohub,2013-05-25 16:07:00,
2013-05-25 09:12:00,56.8,21.4,29.98,ESE,114,8.0,15.0,25,0.00,,,0.00,meteohub,2013-05-25 16:12:00,
2013-05-25 09:17:00,56.8,21.4,29.98,SSE,161,5.0,17.0,25,0.00,,,0.00,meteohub,2013-05-25 16:17:00,
2013-05-25 09:22:00,57.2,21.7,29.97,East,93,6.0,17.0,25,0.00,,,0.00,meteohub,2013-05-25 16:22:00,
2013-05-25 09:27:00,57.6,23.9,29.98,SE,127,5.0,17.0,27,0.00,,,0.00,meteohub,2013-05-25 16:27:00,
2013-05-25 09:32:00,57.7,26.4,29.98,South,188,14.0,16.0,30,0.00,,,0.00,meteohub,2013-05-25 16:32:00,
2013-05-25 09:37:00,57.7,28.8,29.98,ENE,75,8.0,17.0,33,0.00,,,0.00,meteohub,2013-05-25 16:37:00,
2013-05-25 09:42:00,57.9,28.2,29.98,SW,232,6.0,17.0,32,0.00,,,0.00,meteohub,2013-05-25 16:42:00,
2013-05-25 09:47:00,58.1,29.8,29.98,SSE,162,8.0,17.0,34,0.00,,,0.00,meteohub,2013-05-25 16:47:00,
2013-05-25 09:52:00,58.3,30.0,29.98,SE,127,5.0,17.0,34,0.00,,,0.00,meteohub,2013-05-25 16:52:00,
2013-05-25 09:57:00,57.7,32.4,29.98,East,84,5.0,17.0,38,0.00,,,0.00,meteohub,2013-05-25 16:57:00,
2013-05-25 10:02:00,57.7,34.2,29.98,NE,48,3.0,17.0,41,0.00,,,0.00,meteohub,2013-05-25 17:02:00,
2013-05-25 10:07:00,57.9,33.1,29.98,SSW,201,4.0,13.0,39,0.00,,,0.00,meteohub,2013-05-25 17:07:00,
2013-05-25 10:12:00,57.6,35.2,29.98,ESE,122,6.0,15.0,43,0.00,,,0.00,meteohub,2013-05-25 17:12:00,
2013-05-25 10:17:00,57.6,35.2,29.98,SE,135,3.0,15.0,43,0.00,,,0.00,meteohub,2013-05-25 17:17:00,
2013-05-25 10:22:00,57.6,36.3,29.98,East,86,2.0,15.0,45,0.00,,,0.00,meteohub,2013-05-25 17:22:00,
2013-05-25 10:27:00,57.4,36.1,29.98,SSE,153,11.0,18.0,45,0.00,,,0.00,meteohub,2013-05-25 17:27:00,
2013-05-25 10:32:00,57.0,35.2,29.98,SSW,193,10.0,18.0,44,0.00,,,0.00,meteohub,2013-05-25 17:32:00,
2013-05-25 10:37:00,56.8,35.8,29.98,East,98,11.0,18.0,45,0.00,,,0.00,meteohub,2013-05-25 17:37:00,
2013-05-25 10:42:00,57.0,38.1,29.98,SSE,160,17.0,17.0,49,0.00,,,0.00,meteohub,2013-05-25 17:42:00,
2013-05-25 10:47:00,56.7,35.1,29.98,ESE,109,7.0,17.0,44,0.00,,,0.00,meteohub,2013-05-25 17:47:00,
2013-05-25 10:52:00,56.8,36.9,29.99,SE,145,4.0,17.0,47,0.00,,,0.00,meteohub,2013-05-25 17:52:00,
2013-05-25 10:57:00,56.7,37.2,29.99,SE,134,5.0,17.0,48,0.00,,,0.00,meteohub,2013-05-25 17:57:00,
2013-05-25 11:02:00,56.7,35.1,29.99,East,95,6.0,17.0,44,0.00,,,0.00,meteohub,2013-05-25 18:02:00,
2013-05-25 11:07:00,56.5,38.1,29.99,SE,146,9.0,16.0,50,0.00,,,0.00,meteohub,2013-05-25 18:07:00,
2013-05-25 11:12:00,56.3,37.9,30.00,East,95,4.0,18.0,50,0.00,,,0.00,meteohub,2013-05-25 18:12:00,
2013-05-25 11:17:00,56.5,39.0,29.99,East,98,11.0,18.0,52,0.00,,,0.00,meteohub,2013-05-25 18:17:00,
2013-05-25 11:22:00,56.8,39.4,29.99,SSE,159,5.0,17.0,52,0.00,,,0.00,meteohub,2013-05-25 18:22:00,
2013-05-25 11:27:00,56.8,36.3,29.99,SSE,159,12.0,15.0,46,0.00,,,0.00,meteohub,2013-05-25 18:27:00,
2013-05-25 11:32:00,56.7,39.2,30.00,East,82,5.0,16.0,52,0.00,,,0.00,meteohub,2013-05-25 18:32:00,
2013-05-25 11:37:00,56.7,38.7,30.00,WSW,242,5.0,18.0,51,0.00,,,0.00,meteohub,2013-05-25 18:37:00,
2013-05-25 11:42:00,56.5,38.7,30.00,SW,228,9.0,20.0,51,0.00,,,0.00,meteohub,2013-05-25 18:42:00,
2013-05-25 11:47:00,56.5,41.0,30.00,SE,141,5.0,20.0,56,0.00,,,0.00,meteohub,2013-05-25 18:47:00,
2013-05-25 11:52:00,56.5,41.0,30.00,ESE,120,7.0,20.0,56,0.00,,,0.00,meteohub,2013-05-25 18:52:00,
2013-05-25 11:57:00,56.1,40.1,30.00,SW,222,6.0,15.0,55,0.00,,,0.00,meteohub,2013-05-25 18:57:00,
2013-05-25 12:02:00,56.5,39.6,30.00,ESE,120,4.0,15.0,53,0.00,,,0.00,meteohub,2013-05-25 19:02:00,
2013-05-25 12:07:00,56.8,34.0,30.00,SW,217,8.0,17.0,42,0.00,,,0.00,meteohub,2013-05-25 19:07:00,
2013-05-25 12:12:00,57.0,38.1,30.00,WSW,240,3.0,17.0,49,0.00,,,0.00,meteohub,2013-05-25 19:12:00,
2013-05-25 12:17:00,57.4,38.8,30.00,ESE,122,5.0,17.0,50,0.00,,,0.00,meteohub,2013-05-25 19:17:00,
2013-05-25 12:22:00,57.4,41.9,30.00,ESE,108,3.0,17.0,56,0.00,,,0.00,meteohub,2013-05-25 19:22:00,
2013-05-25 12:27:00,56.8,40.5,30.00,SSW,200,4.0,17.0,54,0.00,,,0.00,meteohub,2013-05-25 19:27:00,
2013-05-25 12:32:00,57.0,41.5,30.00,SE,139,9.0,17.0,56,0.00,,,0.00,meteohub,2013-05-25 19:32:00,
2013-05-25 12:37:00,56.5,40.5,30.00,ESE,104,5.0,17.0,55,0.00,,,0.00,meteohub,2013-05-25 19:37:00,
2013-05-25 12:42:00,57.0,40.5,29.99,NNE,23,8.0,17.0,54,0.00,,,0.00,meteohub,2013-05-25 19:42:00,
2013-05-25 12:47:00,57.2,39.2,29.99,South,191,6.0,18.0,51,0.00,,,0.00,meteohub,2013-05-25 19:47:00,
2013-05-25 12:52:00,56.8,38.8,29.99,SE,134,7.0,18.0,51,0.00,,,0.00,meteohub,2013-05-25 19:52:00,
2013-05-25 12:57:00,57.2,38.3,30.00,SSE,160,9.0,18.0,49,0.00,,,0.00,meteohub,2013-05-25 19:57:00,
2013-05-25 13:02:00,56.8,38.8,29.99,ESE,117,5.0,21.0,51,0.00,,,0.00,meteohub,2013-05-25 20:02:00,
2013-05-25 13:07:00,56.8,39.4,30.00,SE,130,4.0,21.0,52,0.00,,,0.00,meteohub,2013-05-25 20:07:00,
2013-05-25 13:12:00,57.0,39.6,30.00,ESE,117,8.0,21.0,52,0.00,,,0.00,meteohub,2013-05-25 20:12:00,
2013-05-25 13:17:00,57.0,39.6,30.00,SSE,160,5.0,20.0,52,0.00,,,0.00,meteohub,2013-05-25 20:17:00,
2013-05-25 13:22:00,56.8,39.4,30.00,SW,229,5.0,20.0,52,0.00,,,0.00,meteohub,2013-05-25 20:22:00,
2013-05-25 13:27:00,57.0,40.5,30.00,South,172,10.0,20.0,54,0.00,,,0.00,meteohub,2013-05-25 20:27:00,
2013-05-25 13:32:00,57.0,39.0,30.01,SW,223,4.0,20.0,51,0.00,,,0.00,meteohub,2013-05-25 20:32:00,
2013-05-25 13:37:00,56.7,37.8,30.00,SE,132,19.0,20.0,49,0.00,,,0.00,meteohub,2013-05-25 20:37:00,
2013-05-25 13:42:00,56.5,37.0,30.00,SW,236,7.0,20.0,48,0.00,,,0.00,meteohub,2013-05-25 20:42:00,
2013-05-25 13:47:00,56.7,37.2,30.01,SE,134,8.0,20.0,48,0.00,,,0.00,meteohub,2013-05-25 20:47:00,
2013-05-25 13:52:00,56.5,36.5,30.00,South,170,2.0,20.0,47,0.00,,,0.00,meteohub,2013-05-25 20:52:00,
2013-05-25 13:57:00,56.8,35.8,30.00,ESE,106,4.0,20.0,45,0.00,,,0.00,meteohub,2013-05-25 20:57:00,
2013-05-25 14:02:00,57.0,34.7,30.01,SSE,148,11.0,18.0,43,0.00,,,0.00,meteohub,2013-05-25 21:02:00,
2013-05-25 14:07:00,57.0,32.9,30.01,SW,215,5.0,17.0,40,0.00,,,0.00,meteohub,2013-05-25 21:07:00,
2013-05-25 14:12:00,56.8,33.4,30.01,SSE,154,8.0,21.0,41,0.00,,,0.00,meteohub,2013-05-25 21:12:00,
2013-05-25 14:17:00,57.0,32.4,30.01,SSE,163,9.0,21.0,39,0.00,,,0.00,meteohub,2013-05-25 21:17:00,
2013-05-25 14:22:00,57.2,31.8,30.01,SE,143,3.0,21.0,38,0.00,,,0.00,meteohub,2013-05-25 21:22:00,
2013-05-25 14:27:00,57.4,30.6,30.01,South,179,4.0,18.0,36,0.00,,,0.00,meteohub,2013-05-25 21:27:00,
2013-05-25 14:32:00,57.7,29.5,30.02,ESE,110,5.0,18.0,34,0.00,,,0.00,meteohub,2013-05-25 21:32:00,
2013-05-25 14:37:00,57.7,29.5,30.01,SE,138,7.0,18.0,34,0.00,,,0.00,meteohub,2013-05-25 21:37:00,
2013-05-25 14:42:00,57.9,28.9,30.01,SE,141,7.0,15.0,33,0.00,,,0.00,meteohub,2013-05-25 21:42:00,
2013-05-25 14:47:00,57.9,28.2,30.01,East,101,5.0,18.0,32,0.00,,,0.00,meteohub,2013-05-25 21:47:00,
2013-05-25 14:52:00,57.9,28.2,30.01,South,191,2.0,18.0,32,0.00,,,0.00,meteohub,2013-05-25 21:52:00,
2013-05-25 14:57:00,58.3,30.0,30.01,SE,136,3.0,18.0,34,0.00,,,0.00,meteohub,2013-05-25 21:57:00,
2013-05-25 15:02:00,58.3,29.3,30.01,SE,139,5.0,16.0,33,0.00,,,0.00,meteohub,2013-05-25 22:02:00,
2013-05-25 15:07:00,57.7,31.6,30.01,SE,134,4.0,17.0,37,0.00,,,0.00,meteohub,2013-05-25 22:07:00,
2013-05-25 15:12:00,57.6,30.7,30.01,ENE,76,3.0,17.0,36,0.00,,,0.00,meteohub,2013-05-25 22:12:00,
2013-05-25 15:17:00,57.9,32.5,30.01,SE,127,7.0,18.0,38,0.00,,,0.00,meteohub,2013-05-25 22:17:00,
2013-05-25 15:22:00,57.7,32.4,30.01,ENE,60,4.0,18.0,38,0.00,,,0.00,meteohub,2013-05-25 22:22:00,
2013-05-25 15:27:00,57.6,34.0,30.01,SE,144,3.0,18.0,41,0.00,,,0.00,meteohub,2013-05-25 22:27:00,
2013-05-25 15:32:00,57.9,36.1,30.01,East,82,5.0,16.0,44,0.00,,,0.00,meteohub,2013-05-25 22:32:00,
2013-05-25 15:37:00,57.9,36.7,30.01,ESE,105,6.0,15.0,45,0.00,,,0.00,meteohub,2013-05-25 22:37:00,
2013-05-25 15:42:00,57.6,37.9,30.00,South,188,3.0,15.0,48,0.00,,,0.00,meteohub,2013-05-25 22:42:00,
2013-05-25 15:47:00,57.6,39.0,30.01,SE,137,9.0,19.0,50,0.00,,,0.00,meteohub,2013-05-25 22:47:00,
2013-05-25 15:52:00,57.6,39.6,30.00,SSE,162,10.0,19.0,51,0.00,,,0.00,meteohub,2013-05-25 22:52:00,
2013-05-25 15:57:00,57.6,38.5,30.00,South,185,7.0,14.0,49,0.00,,,0.00,meteohub,2013-05-25 22:57:00,
2013-05-25 16:02:00,57.4,39.4,30.00,SW,226,10.0,19.0,51,0.00,,,0.00,meteohub,2013-05-25 23:02:00,
2013-05-25 16:07:00,57.0,39.6,30.00,SSW,203,9.0,19.0,52,0.00,,,0.00,meteohub,2013-05-25 23:07:00,
2013-05-25 16:12:00,57.2,39.2,30.00,East,86,4.0,20.0,51,0.00,,,0.00,meteohub,2013-05-25 23:12:00,
2013-05-25 16:17:00,57.2,39.7,30.00,South,186,8.0,20.0,52,0.00,,,0.00,meteohub,2013-05-25 23:17:00,
2013-05-25 16:22:00,57.2,40.3,30.00,SSE,155,8.0,19.0,53,0.00,,,0.00,meteohub,2013-05-25 23:22:00,
2013-05-25 16:27:00,57.0,40.1,30.00,SE,127,3.0,19.0,53,0.00,,,0.00,meteohub,2013-05-25 23:27:00,
2013-05-25 16:32:00,57.0,40.5,30.00,East,94,6.0,17.0,54,0.00,,,0.00,meteohub,2013-05-25 23:32:00,
2013-05-25 16:37:00,56.8,40.5,30.00,ESE,110,10.0,16.0,54,0.00,,,0.00,meteohub,2013-05-25 23:37:00,
2013-05-25 16:42:00,56.5,40.1,30.00,ESE,103,7.0,15.0,54,0.00,,,0.00,meteohub,2013-05-25 23:42:00,
2013-05-25 16:47:00,56.1,39.7,29.99,SE,146,7.0,15.0,54,0.00,,,0.00,meteohub,2013-05-25 23:47:00,
2013-05-25 16:52:00,55.9,39.0,29.99,SE,126,3.0,14.0,53,0.00,,,0.00,meteohub,2013-05-25 23:52:00,
2013-05-25 16:57:00,55.6,39.2,29.99,ESE,113,4.0,14.0,54,0.00,,,0.00,meteohub,2013-05-25 23:57:00,
2013-05-25 17:02:00,55.8,38.8,30.00,SSE,162,4.0,16.0,53,0.00,,,0.00,meteohub,2013-05-26 00:02:00,
2013-05-25 17:07:00,55.6,39.2,30.00,East,91,3.0,16.0,54,0.00,,,0.00,meteohub,2013-05-26 00:07:00,
2013-05-25 17:12:00,55.6,38.7,29.99,SSE,167,4.0,16.0,53,0.00,,,0.00,meteohub,2013-05-26 00:12:00,
2013-05-25 17:17:00,55.6,38.7,29.99,SE,135,6.0,18.0,53,0.00,,,0.00,meteohub,2013-05-26 00:17:00,
2013-05-25 17:22:00,55.6,38.7,29.99,SE,126,4.0,18.0,53,0.00,,,0.00,meteohub,2013-05-26 00:22:00,
2013-05-25 17:27:00,55.8,38.5,29.99,SE,128,3.0,18.0,52,0.00,,,0.00,meteohub,2013-05-26 00:27:00,
2013-05-25 17:32:00,55.8,38.8,29.99,SE,126,4.0,18.0,53,0.00,,,0.00,meteohub,2013-05-26 00:32:00,
2013-05-25 17:37:00,55.8,38.8,29.99,SW,223,4.0,13.0,53,0.00,,,0.00,meteohub,2013-05-26 00:37:00,
2013-05-25 17:42:00,55.8,38.8,29.99,ESE,117,4.0,13.0,53,0.00,,,0.00,meteohub,2013-05-26 00:42:00,
2013-05-25 17:47:00,55.6,39.2,29.99,South,172,8.0,16.0,54,0.00,,,0.00,meteohub,2013-05-26 00:47:00,
2013-05-25 17:52:00,55.6,39.2,29.99,ESE,111,9.0,16.0,54,0.00,,,0.00,meteohub,2013-05-26 00:52:00,
2013-05-25 17:57:00,55.2,38.8,29.99,NNE,18,4.0,16.0,54,0.00,,,0.00,meteohub,2013-05-26 00:57:00,
2013-05-25 18:02:00,55.0,39.2,29.99,SE,127,5.0,16.0,55,0.00,,,0.00,meteohub,2013-05-26 01:02:00,
2013-05-25 18:07:00,55.0,38.7,29.99,SSE,159,2.0,17.0,54,0.00,,,0.00,meteohub,2013-05-26 01:07:00,
2013-05-25 18:12:00,54.9,39.0,29.99,SSW,203,6.0,17.0,55,0.00,,,0.00,meteohub,2013-05-26 01:12:00,
2013-05-25 18:17:00,54.7,38.3,29.99,SSE,148,7.0,17.0,54,0.00,,,0.00,meteohub,2013-05-26 01:17:00,
2013-05-25 18:22:00,54.7,39.4,29.99,ESE,103,2.0,16.0,56,0.00,,,0.00,meteohub,2013-05-26 01:22:00,
2013-05-25 18:27:00,54.1,38.8,29.99,SSE,157,5.0,16.0,56,0.00,,,0.00,meteohub,2013-05-26 01:27:00,
2013-05-25 18:32:00,53.6,39.2,29.99,SE,141,3.0,16.0,58,0.00,,,0.00,meteohub,2013-05-26 01:32:00,
2013-05-25 18:37:00,53.2,39.2,29.99,SE,140,4.0,16.0,59,0.00,,,0.00,meteohub,2013-05-26 01:37:00,
2013-05-25 18:42:00,52.9,39.4,29.99,SSW,211,4.0,16.0,60,0.00,,,0.00,meteohub,2013-05-26 01:42:00,
2013-05-25 18:47:00,52.5,39.4,29.99,SE,131,3.0,16.0,61,0.00,,,0.00,meteohub,2013-05-26 01:47:00,
2013-05-25 18:52:00,52.3,39.7,29.99,ESE,116,8.0,12.0,62,0.00,,,0.00,meteohub,2013-05-26 01:52:00,
2013-05-25 18:57:00,52.2,40.3,29.99,SE,140,5.0,14.0,64,0.00,,,0.00,meteohub,2013-05-26 01:57:00,
2013-05-25 19:02:00,51.8,40.5,29.99,SE,129,3.0,15.0,65,0.00,,,0.00,meteohub,2013-05-26 02:02:00,
2013-05-25 19:07:00,51.4,40.5,29.99,East,89,3.0,15.0,66,0.00,,,0.00,meteohub,2013-05-26 02:07:00,
2013-05-25 19:12:00,51.3,40.6,29.99,ESE,120,4.0,15.0,67,0.00,,,0.00,meteohub,2013-05-26 02:12:00,
2013-05-25 19:17:00,50.9,40.6,29.99,ESE,111,4.0,13.0,68,0.00,,,0.00,meteohub,2013-05-26 02:17:00,
2013-05-25 19:22:00,50.5,40.8,29.99,SSE,151,3.0,13.0,69,0.00,,,0.00,meteohub,2013-05-26 02:22:00,
2013-05-25 19:27:00,50.4,41.0,29.99,SSW,205,7.0,12.0,70,0.00,,,0.00,meteohub,2013-05-26 02:27:00,
2013-05-25 19:32:00,50.0,41.0,29.99,ENE,75,6.0,15.0,71,0.00,,,0.00,meteohub,2013-05-26 02:32:00,
2013-05-25 19:37:00,49.8,41.2,29.99,SSE,157,4.0,17.0,72,0.00,,,0.00,meteohub,2013-05-26 02:37:00,
2013-05-25 19:42:00,49.6,41.7,29.99,ESE,114,10.0,17.0,74,0.00,,,0.00,meteohub,2013-05-26 02:42:00,
2013-05-25 19:47:00,49.3,41.7,29.99,ESE,102,7.0,17.0,75,0.00,,,0.00,meteohub,2013-05-26 02:47:00,
2013-05-25 19:52:00,49.1,41.9,29.99,ESE,117,7.0,14.0,76,0.00,,,0.00,meteohub,2013-05-26 02:52:00,
2013-05-25 19:57:00,48.7,42.3,29.99,South,176,3.0,14.0,78,0.00,,,0.00,meteohub,2013-05-26 02:57:00,
2013-05-25 20:02:00,48.7,42.4,29.99,SE,145,8.0,16.0,79,0.00,,,0.00,meteohub,2013-05-26 03:02:00,
2013-05-25 20:07:00,48.6,42.6,29.99,SSE,166,7.0,16.0,80,0.00,,,0.00,meteohub,2013-05-26 03:07:00,
2013-05-25 20:12:00,48.6,42.6,29.99,SSE,155,8.0,16.0,80,0.00,,,0.00,meteohub,2013-05-26 03:12:00,
2013-05-25 20:17:00,48.6,42.6,29.99,ESE,112,6.0,15.0,80,0.00,,,0.00,meteohub,2013-05-26 03:17:00,
2013-05-25 20:22:00,48.4,42.8,29.99,SSE,150,6.0,15.0,81,0.00,,,0.00,meteohub,2013-05-26 03:22:00,
2013-05-25 20:27:00,48.4,43.2,29.99,SE,143,6.0,15.0,82,0.00,,,0.00,meteohub,2013-05-26 03:27:00,
2013-05-25 20:32:00,48.4,43.2,29.99,South,181,5.0,13.0,82,0.00,,,0.00,meteohub,2013-05-26 03:32:00,
2013-05-25 20:37:00,48.4,42.8,29.99,ENE,76,6.0,13.0,81,0.00,,,0.00,meteohub,2013-05-26 03:37:00,
2013-05-25 20:42:00,48.6,42.1,29.98,ENE,65,4.0,14.0,78,0.00,,,0.00,meteohub,2013-05-26 03:42:00,
2013-05-25 20:47:00,48.9,41.4,29.98,SSW,200,5.0,15.0,75,0.00,,,0.00,meteohub,2013-05-26 03:47:00,
2013-05-25 20:52:00,49.3,40.6,29.98,SE,136,10.0,15.0,72,0.00,,,0.00,meteohub,2013-05-26 03:52:00,
2013-05-25 20:57:00,49.6,39.6,29.98,East,79,8.0,15.0,68,0.00,,,0.00,meteohub,2013-05-26 03:57:00,
2013-05-25 21:02:00,50.5,37.9,29.99,ESE,110,4.0,15.0,62,0.00,,,0.00,meteohub,2013-05-26 04:02:00,
2013-05-25 21:07:00,50.9,37.6,29.99,South,187,5.0,15.0,60,0.00,,,0.00,meteohub,2013-05-26 04:07:00,
2013-05-25 21:12:00,51.3,36.1,29.99,SSE,159,8.0,14.0,56,0.00,,,0.00,meteohub,2013-05-26 04:12:00,
2013-05-25 21:17:00,51.6,36.0,29.99,SSE,159,4.0,15.0,55,0.00,,,0.00,meteohub,2013-05-26 04:17:00,
2013-05-25 21:22:00,52.0,34.3,29.99,SSE,158,3.0,19.0,51,0.00,,,0.00,meteohub,2013-05-26 04:22:00,
2013-05-25 21:27:00,52.2,33.6,29.99,South,169,1.0,19.0,49,0.00,,,0.00,meteohub,2013-05-26 04:27:00,
2013-05-25 21:32:00,52.2,35.6,29.99,NW,309,6.0,19.0,53,0.00,,,0.00,meteohub,2013-05-26 04:32:00,
2013-05-25 21:37:00,52.3,35.8,29.99,SE,136,10.0,15.0,53,0.00,,,0.00,meteohub,2013-05-26 04:37:00,
2013-05-25 21:42:00,52.3,36.1,29.99,SW,214,6.0,13.0,54,0.00,,,0.00,meteohub,2013-05-26 04:42:00,
2013-05-25 21:47:00,52.2,37.4,30.00,SE,141,5.0,16.0,57,0.00,,,0.00,meteohub,2013-05-26 04:47:00,
2013-05-25 21:52:00,51.8,37.9,30.00,ESE,117,11.0,16.0,59,0.00,,,0.00,meteohub,2013-05-26 04:52:00,
2013-05-25 21:57:00,51.4,38.8,30.00,ESE,114,6.0,16.0,62,0.00,,,0.00,meteohub,2013-05-26 04:57:00,
2013-05-25 22:02:00,51.1,38.8,30.00,SW,214,11.0,17.0,63,0.00,,,0.00,meteohub,2013-05-26 05:02:00,
2013-05-25 22:07:00,50.7,39.4,30.00,ESE,120,9.0,17.0,65,0.00,,,0.00,meteohub,2013-05-26 05:07:00,
2013-05-25 22:12:00,50.5,38.8,30.00,South,180,4.0,19.0,64,0.00,,,0.00,meteohub,2013-05-26 05:12:00,
2013-05-25 22:17:00,50.4,39.7,30.00,SE,129,13.0,19.0,67,0.00,,,0.00,meteohub,2013-05-26 05:17:00,
2013-05-25 22:22:00,50.0,39.9,29.99,SSE,148,4.0,19.0,68,0.00,,,0.00,meteohub,2013-05-26 05:22:00,
2013-05-25 22:32:00,50.2,37.6,29.99,SE,139,6.0,15.0,62,0.00,,,0.00,meteohub,2013-05-26 05:32:00,
2013-05-25 22:37:00,50.2,39.2,29.99,ENE,76,3.0,13.0,66,0.00,,,0.00,meteohub,2013-05-26 05:37:00,
2013-05-25 22:42:00,50.2,38.5,30.00,ESE,117,5.0,13.0,64,0.00,,,0.00,meteohub,2013-05-26 05:42:00,
2013-05-25 22:47:00,50.4,38.3,30.00,SE,139,7.0,13.0,63,0.00,,,0.00,meteohub,2013-05-26 05:47:00,
2013-05-25 22:52:00,50.4,38.7,30.00,SSE,152,3.0,15.0,64,0.00,,,0.00,meteohub,2013-05-26 05:52:00,
2013-05-25 22:57:00,50.2,38.8,30.00,SSW,205,2.0,15.0,65,0.00,,,0.00,meteohub,2013-05-26 05:57:00,
2013-05-25 23:02:00,49.8,39.7,30.00,SW,234,4.0,13.0,68,0.00,,,0.00,meteohub,2013-05-26 06:02:00,
2013-05-25 23:07:00,49.5,39.7,30.00,South,177,0.0,15.0,69,0.00,,,0.00,meteohub,2013-05-26 06:07:00,
2013-05-25 23:12:00,49.3,39.6,30.00,SSW,204,2.0,15.0,69,0.00,,,0.00,meteohub,2013-05-26 06:12:00,
2013-05-25 23:17:00,49.1,40.1,30.00,WSW,239,1.0,15.0,71,0.00,,,0.00,meteohub,2013-05-26 06:17:00,
2013-05-25 23:22:00,48.7,39.4,30.01,ESE,104,2.0,14.0,70,0.00,,,0.00,meteohub,2013-05-26 06:22:00,
2013-05-25 23:27:00,48.4,39.0,30.01,WNW,284,0.0,13.0,70,0.00,,,0.00,meteohub,2013-05-26 06:27:00,
2013-05-25 23:32:00,47.8,38.1,30.01,North,353,1.0,9.0,69,0.00,,,0.00,meteohub,2013-05-26 06:32:00,
2013-05-25 23:37:00,47.7,37.9,30.01,SSW,212,1.0,7.0,69,0.00,,,0.00,meteohub,2013-05-26 06:37:00,
2013-05-25 23:42:00,47.5,38.1,30.02,East,101,2.0,2.0,70,0.00,,,0.00,meteohub,2013-05-26 06:42:00,
2013-05-25 23:47:00,47.1,37.8,30.01,South,188,0.0,4.0,70,0.00,,,0.00,meteohub,2013-05-26 06:47:00,
2013-05-25 23:52:00,46.9,36.9,30.02,ESE,115,0.0,4.0,68,0.00,,,0.00,meteohub,2013-05-26 06:52:00,
2013-05-25 23:57:00,46.8,36.7,30.01,ESE,120,1.0,3.0,68,0.00,,,0.00,meteohub,2013-05-26 06:57:00,